Terminal Aerodrome Forecast
Issued by NWS Newport/Morehead City, NC

Home | Current Version | Previous Version | Graphics & Text | Print | Product List | Glossary On
Versions: 1 2 3 4 5 6 7 8 9 10 11 12
591
FTUS42 KMHX 221721
TAFEWN
TAF
KEWN 221721Z 2218/2318 25011KT P6SM SKC
     FM230000 18006KT P6SM VCSH BKN050
     FM230800 04007KT P6SM BKN010
     FM231600 07009KT P6SM BKN020=

USA.gov is the U.S. government's official web portal to all federal, state and local government web resources and services.